sensor_id;sensor_type;location;lat;lon;timestamp;P1;durP1;ratioP1;P2;durP2;ratioP2
66587;SDS011;53446;50.076;8.198;2023-08-01T00:01:10;210.38;;;105.65;;
66587;SDS011;53446;50.076;8.198;2023-08-01T00:03:10;208.17;;;104.73;;
66587;SDS011;53446;50.076;8.198;2023-08-01T00:05:10;206.87;;;104.47;;
66587;SDS011;53446;50.076;8.198;2023-08-01T00:07:11;202.60;;;103.50;;
66587;SDS011;53446;50.076;8.198;2023-08-01T00:09:11;215.23;;;105.38;;
66587;SDS011;53446;50.076;8.198;2023-08-01T00:11:11;211.83;;;106.33;;
66587;SDS011;53446;50.076;8.198;2023-08-01T00:13:14;214.27;;;104.80;;
66587;SDS011;53446;50.076;8.198;2023-08-01T00:15:14;209.88;;;105.35;;
66587;SDS011;53446;50.076;8.198;2023-08-01T00:17:14;216.33;;;105.17;;
66587;SDS011;53446;50.076;8.198;2023-08-01T00:19:15;216.57;;;105.20;;
66587;SDS011;53446;50.076;8.198;2023-08-01T00:21:15;218.30;;;106.77;;
66587;SDS011;53446;50.076;8.198;2023-08-01T00:23:15;209.63;;;105.47;;
66587;SDS011;53446;50.076;8.198;2023-08-01T00:25:16;214.43;;;107.50;;
66587;SDS011;53446;50.076;8.198;2023-08-01T00:27:17;213.95;;;105.72;;
66587;SDS011;53446;50.076;8.198;2023-08-01T00:29:17;211.40;;;105.10;;
66587;SDS011;53446;50.076;8.198;2023-08-01T00:31:17;215.20;;;108.03;;
66587;SDS011;53446;50.076;8.198;2023-08-01T00:33:18;213.40;;;105.53;;
66587;SDS011;53446;50.076;8.198;2023-08-01T00:35:18;211.98;;;106.13;;
66587;SDS011;53446;50.076;8.198;2023-08-01T00:37:19;210.83;;;105.53;;
66587;SDS011;53446;50.076;8.198;2023-08-01T00:39:19;207.47;;;104.53;;
66587;SDS011;53446;50.076;8.198;2023-08-01T00:41:19;208.17;;;105.90;;
66587;SDS011;53446;50.076;8.198;2023-08-01T00:43:20;215.07;;;106.05;;
66587;SDS011;53446;50.076;8.198;2023-08-01T00:45:20;207.90;;;105.83;;
66587;SDS011;53446;50.076;8.198;2023-08-01T00:47:21;213.00;;;106.67;;
66587;SDS011;53446;50.076;8.198;2023-08-01T00:49:21;207.03;;;105.23;;
66587;SDS011;53446;50.076;8.198;2023-08-01T00:51:21;210.97;;;105.70;;
66587;SDS011;53446;50.076;8.198;2023-08-01T00:53:22;211.70;;;104.72;;
66587;SDS011;53446;50.076;8.198;2023-08-01T00:55:22;212.07;;;106.45;;
66587;SDS011;53446;50.076;8.198;2023-08-01T00:57:23;206.10;;;104.93;;
66587;SDS011;53446;50.076;8.198;2023-08-01T00:59:23;208.00;;;105.93;;
66587;SDS011;53446;50.076;8.198;2023-08-01T01:01:24;212.03;;;106.10;;
66587;SDS011;53446;50.076;8.198;2023-08-01T01:03:24;205.27;;;104.68;;
66587;SDS011;53446;50.076;8.198;2023-08-01T01:05:24;206.55;;;105.35;;
66587;SDS011;53446;50.076;8.198;2023-08-01T01:07:25;212.63;;;106.67;;
66587;SDS011;53446;50.076;8.198;2023-08-01T01:09:28;210.50;;;106.35;;
66587;SDS011;53446;50.076;8.198;2023-08-01T01:11:30;209.85;;;105.80;;
66587;SDS011;53446;50.076;8.198;2023-08-01T01:13:30;210.65;;;106.47;;
66587;SDS011;53446;50.076;8.198;2023-08-01T01:15:31;211.90;;;107.00;;
66587;SDS011;53446;50.076;8.198;2023-08-01T01:17:31;215.37;;;107.77;;
66587;SDS011;53446;50.076;8.198;2023-08-01T01:19:32;211.47;;;106.70;;
66587;SDS011;53446;50.076;8.198;2023-08-01T01:21:33;212.70;;;106.43;;
66587;SDS011;53446;50.076;8.198;2023-08-01T01:23:34;215.48;;;107.10;;
66587;SDS011;53446;50.076;8.198;2023-08-01T01:25:35;214.48;;;106.53;;
66587;SDS011;53446;50.076;8.198;2023-08-01T01:27:36;218.38;;;107.40;;
66587;SDS011;53446;50.076;8.198;2023-08-01T01:29:38;210.73;;;106.38;;
66587;SDS011;53446;50.076;8.198;2023-08-01T01:31:38;215.50;;;107.30;;
66587;SDS011;53446;50.076;8.198;2023-08-01T01:33:39;215.38;;;106.82;;
66587;SDS011;53446;50.076;8.198;2023-08-01T01:35:40;215.13;;;106.83;;
66587;SDS011;53446;50.076;8.198;2023-08-01T01:37:40;212.32;;;106.43;;
66587;SDS011;53446;50.076;8.198;2023-08-01T01:39:40;213.07;;;107.17;;
66587;SDS011;53446;50.076;8.198;2023-08-01T01:41:41;217.57;;;107.73;;
66587;SDS011;53446;50.076;8.198;2023-08-01T01:43:41;214.90;;;106.30;;
66587;SDS011;53446;50.076;8.198;2023-08-01T01:45:41;216.67;;;107.37;;
66587;SDS011;53446;50.076;8.198;2023-08-01T01:47:42;217.50;;;107.63;;
66587;SDS011;53446;50.076;8.198;2023-08-01T01:49:42;214.43;;;108.03;;
66587;SDS011;53446;50.076;8.198;2023-08-01T01:51:42;214.13;;;106.28;;
66587;SDS011;53446;50.076;8.198;2023-08-01T01:53:42;219.23;;;108.68;;
66587;SDS011;53446;50.076;8.198;2023-08-01T01:55:43;213.43;;;107.27;;
66587;SDS011;53446;50.076;8.198;2023-08-01T01:57:43;214.63;;;107.77;;
66587;SDS011;53446;50.076;8.198;2023-08-01T01:59:43;215.37;;;106.80;;
66587;SDS011;53446;50.076;8.198;2023-08-01T02:01:44;218.07;;;108.10;;
66587;SDS011;53446;50.076;8.198;2023-08-01T02:03:44;213.17;;;107.53;;
66587;SDS011;53446;50.076;8.198;2023-08-01T02:05:44;215.60;;;107.20;;
66587;SDS011;53446;50.076;8.198;2023-08-01T02:07:45;211.02;;;106.68;;
66587;SDS011;53446;50.076;8.198;2023-08-01T02:09:45;212.23;;;106.87;;
66587;SDS011;53446;50.076;8.198;2023-08-01T02:11:46;215.75;;;107.63;;
66587;SDS011;53446;50.076;8.198;2023-08-01T02:13:47;213.00;;;107.97;;
66587;SDS011;53446;50.076;8.198;2023-08-01T02:15:47;210.27;;;106.60;;
66587;SDS011;53446;50.076;8.198;2023-08-01T02:17:47;210.97;;;107.47;;
66587;SDS011;53446;50.076;8.198;2023-08-01T02:19:47;210.27;;;106.33;;
66587;SDS011;53446;50.076;8.198;2023-08-01T02:21:48;209.43;;;106.67;;
66587;SDS011;53446;50.076;8.198;2023-08-01T02:23:48;208.77;;;106.95;;
66587;SDS011;53446;50.076;8.198;2023-08-01T02:25:49;212.05;;;107.45;;
66587;SDS011;53446;50.076;8.198;2023-08-01T02:27:49;208.30;;;106.03;;
66587;SDS011;53446;50.076;8.198;2023-08-01T02:29:49;207.47;;;105.50;;
66587;SDS011;53446;50.076;8.198;2023-08-01T02:31:50;209.60;;;106.47;;
66587;SDS011;53446;50.076;8.198;2023-08-01T02:33:50;208.40;;;106.10;;
66587;SDS011;53446;50.076;8.198;2023-08-01T02:35:51;210.13;;;106.50;;
66587;SDS011;53446;50.076;8.198;2023-08-01T02:37:51;205.37;;;104.67;;
66587;SDS011;53446;50.076;8.198;2023-08-01T02:39:51;208.50;;;105.07;;
66587;SDS011;53446;50.076;8.198;2023-08-01T02:41:52;208.83;;;106.27;;
66587;SDS011;53446;50.076;8.198;2023-08-01T02:43:52;212.53;;;106.00;;
66587;SDS011;53446;50.076;8.198;2023-08-01T02:45:53;210.27;;;104.97;;
66587;SDS011;53446;50.076;8.198;2023-08-01T02:47:53;209.57;;;105.97;;
66587;SDS011;53446;50.076;8.198;2023-08-01T02:49:53;210.87;;;106.23;;
66587;SDS011;53446;50.076;8.198;2023-08-01T02:51:54;209.77;;;104.53;;
66587;SDS011;53446;50.076;8.198;2023-08-01T02:53:54;212.73;;;106.17;;
66587;SDS011;53446;50.076;8.198;2023-08-01T02:55:54;213.57;;;107.03;;
66587;SDS011;53446;50.076;8.198;2023-08-01T02:57:54;210.20;;;105.57;;
66587;SDS011;53446;50.076;8.198;2023-08-01T02:59:55;211.05;;;106.30;;
66587;SDS011;53446;50.076;8.198;2023-08-01T03:01:55;217.82;;;107.93;;
66587;SDS011;53446;50.076;8.198;2023-08-01T03:03:55;214.73;;;106.83;;
66587;SDS011;53446;50.076;8.198;2023-08-01T03:05:56;212.67;;;106.53;;
66587;SDS011;53446;50.076;8.198;2023-08-01T03:07:56;214.20;;;106.37;;
66587;SDS011;53446;50.076;8.198;2023-08-01T03:09:56;213.43;;;106.40;;
66587;SDS011;53446;50.076;8.198;2023-08-01T03:11:57;204.07;;;103.83;;
66587;SDS011;53446;50.076;8.198;2023-08-01T03:13:57;207.32;;;103.90;;
66587;SDS011;53446;50.076;8.198;2023-08-01T03:15:57;211.82;;;105.10;;
66587;SDS011;53446;50.076;8.198;2023-08-01T03:17:58;212.23;;;105.30;;
66587;SDS011;53446;50.076;8.198;2023-08-01T03:19:58;207.63;;;104.70;;
66587;SDS011;53446;50.076;8.198;2023-08-01T03:21:58;207.47;;;105.07;;
66587;SDS011;53446;50.076;8.198;2023-08-01T03:24:00;207.15;;;104.15;;
66587;SDS011;53446;50.076;8.198;2023-08-01T03:26:01;210.32;;;104.70;;
66587;SDS011;53446;50.076;8.198;2023-08-01T03:28:01;208.70;;;104.60;;
66587;SDS011;53446;50.076;8.198;2023-08-01T03:30:02;208.37;;;104.53;;
66587;SDS011;53446;50.076;8.198;2023-08-01T03:32:03;209.85;;;105.65;;
66587;SDS011;53446;50.076;8.198;2023-08-01T03:34:04;213.70;;;106.20;;
66587;SDS011;53446;50.076;8.198;2023-08-01T03:36:08;213.45;;;106.90;;
66587;SDS011;53446;50.076;8.198;2023-08-01T03:38:08;211.77;;;106.23;;
66587;SDS011;53446;50.076;8.198;2023-08-01T03:40:09;211.20;;;105.90;;
66587;SDS011;53446;50.076;8.198;2023-08-01T03:42:09;211.07;;;105.38;;
66587;SDS011;53446;50.076;8.198;2023-08-01T03:44:10;213.93;;;106.13;;
66587;SDS011;53446;50.076;8.198;2023-08-01T03:46:10;219.60;;;107.63;;
66587;SDS011;53446;50.076;8.198;2023-08-01T03:48:10;213.97;;;106.57;;
66587;SDS011;53446;50.076;8.198;2023-08-01T03:50:11;219.50;;;107.82;;
66587;SDS011;53446;50.076;8.198;2023-08-01T03:52:13;220.43;;;106.55;;
66587;SDS011;53446;50.076;8.198;2023-08-01T03:54:14;220.30;;;106.43;;
66587;SDS011;53446;50.076;8.198;2023-08-01T03:56:14;221.07;;;108.53;;
66587;SDS011;53446;50.076;8.198;2023-08-01T03:58:14;219.90;;;106.97;;
66587;SDS011;53446;50.076;8.198;2023-08-01T04:00:15;220.07;;;106.80;;
66587;SDS011;53446;50.076;8.198;2023-08-01T04:02:18;219.50;;;106.97;;
66587;SDS011;53446;50.076;8.198;2023-08-01T04:04:18;216.60;;;107.13;;
66587;SDS011;53446;50.076;8.198;2023-08-01T04:06:20;216.43;;;107.47;;
66587;SDS011;53446;50.076;8.198;2023-08-01T04:08:20;213.70;;;106.03;;
66587;SDS011;53446;50.076;8.198;2023-08-01T04:10:21;209.98;;;105.20;;
66587;SDS011;53446;50.076;8.198;2023-08-01T04:12:21;212.80;;;106.80;;
66587;SDS011;53446;50.076;8.198;2023-08-01T04:14:22;212.13;;;106.23;;
66587;SDS011;53446;50.076;8.198;2023-08-01T04:16:22;215.68;;;106.85;;
66587;SDS011;53446;50.076;8.198;2023-08-01T04:18:22;216.48;;;106.82;;
66587;SDS011;53446;50.076;8.198;2023-08-01T04:20:23;215.13;;;106.90;;
66587;SDS011;53446;50.076;8.198;2023-08-01T04:22:23;210.67;;;105.37;;
66587;SDS011;53446;50.076;8.198;2023-08-01T04:24:23;214.23;;;105.57;;
66587;SDS011;53446;50.076;8.198;2023-08-01T04:26:25;214.75;;;106.82;;
66587;SDS011;53446;50.076;8.198;2023-08-01T04:28:25;214.53;;;106.93;;
66587;SDS011;53446;50.076;8.198;2023-08-01T04:30:25;211.90;;;106.37;;
66587;SDS011;53446;50.076;8.198;2023-08-01T04:32:26;214.53;;;106.97;;
66587;SDS011;53446;50.076;8.198;2023-08-01T04:34:26;217.63;;;107.00;;
66587;SDS011;53446;50.076;8.198;2023-08-01T04:36:26;219.37;;;108.03;;
66587;SDS011;53446;50.076;8.198;2023-08-01T04:38:27;213.30;;;105.53;;
66587;SDS011;53446;50.076;8.198;2023-08-01T04:40:27;218.30;;;107.35;;
66587;SDS011;53446;50.076;8.198;2023-08-01T04:42:28;212.83;;;106.57;;
66587;SDS011;53446;50.076;8.198;2023-08-01T04:44:28;215.73;;;106.28;;
66587;SDS011;53446;50.076;8.198;2023-08-01T04:46:30;213.90;;;106.15;;
66587;SDS011;53446;50.076;8.198;2023-08-01T04:48:30;209.07;;;105.17;;
66587;SDS011;53446;50.076;8.198;2023-08-01T04:50:30;214.07;;;106.03;;
66587;SDS011;53446;50.076;8.198;2023-08-01T04:52:31;214.47;;;106.20;;
66587;SDS011;53446;50.076;8.198;2023-08-01T04:54:31;215.93;;;106.60;;
66587;SDS011;53446;50.076;8.198;2023-08-01T04:56:31;217.33;;;107.43;;
66587;SDS011;53446;50.076;8.198;2023-08-01T04:58:32;218.00;;;107.87;;
66587;SDS011;53446;50.076;8.198;2023-08-01T05:00:32;222.53;;;107.80;;
66587;SDS011;53446;50.076;8.198;2023-08-01T05:02:32;215.07;;;106.07;;
66587;SDS011;53446;50.076;8.198;2023-08-01T05:04:32;215.93;;;105.87;;
66587;SDS011;53446;50.076;8.198;2023-08-01T05:06:33;216.13;;;106.60;;
66587;SDS011;53446;50.076;8.198;2023-08-01T05:08:33;213.82;;;106.47;;
66587;SDS011;53446;50.076;8.198;2023-08-01T05:10:33;215.38;;;106.25;;
66587;SDS011;53446;50.076;8.198;2023-08-01T05:12:34;214.80;;;106.13;;
66587;SDS011;53446;50.076;8.198;2023-08-01T05:14:34;215.60;;;107.03;;
66587;SDS011;53446;50.076;8.198;2023-08-01T05:16:34;221.10;;;108.60;;
66587;SDS011;53446;50.076;8.198;2023-08-01T05:18:35;215.40;;;105.87;;
66587;SDS011;53446;50.076;8.198;2023-08-01T05:20:35;216.30;;;107.03;;
66587;SDS011;53446;50.076;8.198;2023-08-01T05:22:35;214.17;;;105.97;;
66587;SDS011;53446;50.076;8.198;2023-08-01T05:24:36;213.03;;;106.40;;
66587;SDS011;53446;50.076;8.198;2023-08-01T05:26:36;219.00;;;108.50;;
66587;SDS011;53446;50.076;8.198;2023-08-01T05:28:36;213.23;;;105.53;;
66587;SDS011;53446;50.076;8.198;2023-08-01T05:30:37;207.80;;;105.10;;
66587;SDS011;53446;50.076;8.198;2023-08-01T05:32:37;210.10;;;105.00;;
66587;SDS011;53446;50.076;8.198;2023-08-01T05:34:39;211.85;;;105.57;;
66587;SDS011;53446;50.076;8.198;2023-08-01T05:36:39;217.33;;;107.67;;
66587;SDS011;53446;50.076;8.198;2023-08-01T05:38:40;214.47;;;106.23;;
66587;SDS011;53446;50.076;8.198;2023-08-01T05:40:40;211.73;;;106.17;;
66587;SDS011;53446;50.076;8.198;2023-08-01T05:42:40;211.32;;;105.20;;
66587;SDS011;53446;50.076;8.198;2023-08-01T05:44:40;210.07;;;106.65;;
66587;SDS011;53446;50.076;8.198;2023-08-01T05:46:41;214.97;;;107.87;;
66587;SDS011;53446;50.076;8.198;2023-08-01T05:48:41;211.87;;;106.33;;
66587;SDS011;53446;50.076;8.198;2023-08-01T05:50:41;209.67;;;104.47;;
66587;SDS011;53446;50.076;8.198;2023-08-01T05:52:42;212.80;;;106.00;;
66587;SDS011;53446;50.076;8.198;2023-08-01T05:54:42;211.10;;;105.57;;
66587;SDS011;53446;50.076;8.198;2023-08-01T05:56:42;213.00;;;107.17;;
66587;SDS011;53446;50.076;8.198;2023-08-01T05:58:43;208.00;;;104.55;;
66587;SDS011;53446;50.076;8.198;2023-08-01T06:00:43;207.18;;;103.93;;
66587;SDS011;53446;50.076;8.198;2023-08-01T06:02:43;207.63;;;103.90;;
66587;SDS011;53446;50.076;8.198;2023-08-01T06:04:44;205.20;;;103.37;;
66587;SDS011;53446;50.076;8.198;2023-08-01T06:06:44;210.13;;;105.53;;
66587;SDS011;53446;50.076;8.198;2023-08-01T06:08:44;205.77;;;104.83;;
66587;SDS011;53446;50.076;8.198;2023-08-01T06:10:45;216.60;;;105.10;;
66587;SDS011;53446;50.076;8.198;2023-08-01T06:12:45;216.60;;;105.80;;
66587;SDS011;53446;50.076;8.198;2023-08-01T06:14:46;216.88;;;106.78;;
66587;SDS011;53446;50.076;8.198;2023-08-01T06:16:48;222.38;;;108.28;;
66587;SDS011;53446;50.076;8.198;2023-08-01T06:18:48;228.90;;;110.23;;
66587;SDS011;53446;50.076;8.198;2023-08-01T06:20:48;230.07;;;110.50;;
66587;SDS011;53446;50.076;8.198;2023-08-01T06:22:49;226.32;;;110.40;;
66587;SDS011;53446;50.076;8.198;2023-08-01T06:24:49;230.57;;;110.18;;
66587;SDS011;53446;50.076;8.198;2023-08-01T06:26:50;230.23;;;110.33;;
66587;SDS011;53446;50.076;8.198;2023-08-01T06:28:50;229.77;;;111.00;;
66587;SDS011;53446;50.076;8.198;2023-08-01T06:30:53;227.63;;;109.00;;
66587;SDS011;53446;50.076;8.198;2023-08-01T06:32:53;227.83;;;110.33;;
66587;SDS011;53446;50.076;8.198;2023-08-01T06:34:53;223.87;;;108.77;;
66587;SDS011;53446;50.076;8.198;2023-08-01T06:36:53;223.50;;;108.00;;
66587;SDS011;53446;50.076;8.198;2023-08-01T06:38:54;223.60;;;108.33;;
66587;SDS011;53446;50.076;8.198;2023-08-01T06:40:54;222.53;;;107.67;;
66587;SDS011;53446;50.076;8.198;2023-08-01T06:42:54;219.67;;;107.27;;
66587;SDS011;53446;50.076;8.198;2023-08-01T06:44:55;219.88;;;107.47;;
66587;SDS011;53446;50.076;8.198;2023-08-01T06:46:55;217.77;;;107.22;;
66587;SDS011;53446;50.076;8.198;2023-08-01T06:48:55;218.97;;;107.00;;
66587;SDS011;53446;50.076;8.198;2023-08-01T06:50:56;219.43;;;107.30;;
66587;SDS011;53446;50.076;8.198;2023-08-01T06:52:56;212.37;;;105.93;;
66587;SDS011;53446;50.076;8.198;2023-08-01T06:54:56;214.60;;;105.50;;
66587;SDS011;53446;50.076;8.198;2023-08-01T06:56:57;214.60;;;106.67;;
66587;SDS011;53446;50.076;8.198;2023-08-01T06:58:58;214.48;;;106.63;;
66587;SDS011;53446;50.076;8.198;2023-08-01T07:00:59;217.73;;;106.38;;
66587;SDS011;53446;50.076;8.198;2023-08-01T07:02:59;215.27;;;106.47;;
66587;SDS011;53446;50.076;8.198;2023-08-01T07:04:59;207.53;;;105.03;;
66587;SDS011;53446;50.076;8.198;2023-08-01T07:07:00;207.03;;;104.13;;
66587;SDS011;53446;50.076;8.198;2023-08-01T07:09:00;209.00;;;105.37;;
66587;SDS011;53446;50.076;8.198;2023-08-01T07:11:00;206.20;;;103.90;;
66587;SDS011;53446;50.076;8.198;2023-08-01T07:13:01;208.07;;;105.00;;
66587;SDS011;53446;50.076;8.198;2023-08-01T07:15:04;204.18;;;103.97;;
66587;SDS011;53446;50.076;8.198;2023-08-01T07:17:04;202.68;;;103.50;;
66587;SDS011;53446;50.076;8.198;2023-08-01T07:19:05;205.98;;;104.07;;
66587;SDS011;53446;50.076;8.198;2023-08-01T07:21:05;201.00;;;103.63;;
66587;SDS011;53446;50.076;8.198;2023-08-01T07:23:06;195.33;;;101.27;;
66587;SDS011;53446;50.076;8.198;2023-08-01T07:25:06;192.60;;;100.47;;
66587;SDS011;53446;50.076;8.198;2023-08-01T07:27:06;190.40;;;100.90;;
66587;SDS011;53446;50.076;8.198;2023-08-01T07:29:07;196.23;;;102.38;;
66587;SDS011;53446;50.076;8.198;2023-08-01T07:31:11;201.93;;;103.20;;
66587;SDS011;53446;50.076;8.198;2023-08-01T07:33:11;201.70;;;102.90;;
66587;SDS011;53446;50.076;8.198;2023-08-01T07:35:11;205.47;;;104.10;;
66587;SDS011;53446;50.076;8.198;2023-08-01T07:37:13;206.52;;;104.65;;
66587;SDS011;53446;50.076;8.198;2023-08-01T07:39:13;203.88;;;104.13;;
66587;SDS011;53446;50.076;8.198;2023-08-01T07:41:13;206.00;;;105.07;;
66587;SDS011;53446;50.076;8.198;2023-08-01T07:43:14;201.37;;;103.73;;
66587;SDS011;53446;50.076;8.198;2023-08-01T07:45:14;200.50;;;103.40;;
66587;SDS011;53446;50.076;8.198;2023-08-01T07:47:14;199.20;;;102.83;;
66587;SDS011;53446;50.076;8.198;2023-08-01T07:49:15;197.00;;;102.63;;
66587;SDS011;53446;50.076;8.198;2023-08-01T07:51:15;187.07;;;99.60;;
66587;SDS011;53446;50.076;8.198;2023-08-01T07:53:15;193.03;;;101.27;;
66587;SDS011;53446;50.076;8.198;2023-08-01T07:55:15;180.50;;;97.00;;
66587;SDS011;53446;50.076;8.198;2023-08-01T07:57:16;178.13;;;97.90;;
66587;SDS011;53446;50.076;8.198;2023-08-01T07:59:17;185.80;;;100.27;;
66587;SDS011;53446;50.076;8.198;2023-08-01T08:01:17;176.33;;;96.57;;
66587;SDS011;53446;50.076;8.198;2023-08-01T08:03:17;173.13;;;96.53;;
66587;SDS011;53446;50.076;8.198;2023-08-01T08:05:18;173.15;;;95.88;;
66587;SDS011;53446;50.076;8.198;2023-08-01T08:07:19;176.07;;;96.95;;
66587;SDS011;53446;50.076;8.198;2023-08-01T08:09:19;177.23;;;96.30;;
66587;SDS011;53446;50.076;8.198;2023-08-01T08:11:19;175.97;;;95.83;;
66587;SDS011;53446;50.076;8.198;2023-08-01T08:13:20;160.70;;;92.37;;
66587;SDS011;53446;50.076;8.198;2023-08-01T08:15:20;165.80;;;93.30;;
66587;SDS011;53446;50.076;8.198;2023-08-01T08:17:21;168.53;;;94.13;;
66587;SDS011;53446;50.076;8.198;2023-08-01T08:19:21;170.03;;;95.10;;
66587;SDS011;53446;50.076;8.198;2023-08-01T08:21:24;165.88;;;93.60;;
66587;SDS011;53446;50.076;8.198;2023-08-01T08:23:24;165.37;;;94.27;;
66587;SDS011;53446;50.076;8.198;2023-08-01T08:25:24;170.60;;;95.35;;
66587;SDS011;53446;50.076;8.198;2023-08-01T08:29:25;156.23;;;91.40;;
66587;SDS011;53446;50.076;8.198;2023-08-01T08:31:25;152.88;;;89.22;;
66587;SDS011;53446;50.076;8.198;2023-08-01T08:33:26;155.40;;;89.57;;
66587;SDS011;53446;50.076;8.198;2023-08-01T08:35:26;152.47;;;88.97;;
66587;SDS011;53446;50.076;8.198;2023-08-01T08:37:26;148.80;;;88.70;;
66587;SDS011;53446;50.076;8.198;2023-08-01T08:39:26;149.33;;;88.67;;
66587;SDS011;53446;50.076;8.198;2023-08-01T08:41:27;148.60;;;89.10;;
66587;SDS011;53446;50.076;8.198;2023-08-01T08:43:28;139.30;;;86.13;;
66587;SDS011;53446;50.076;8.198;2023-08-01T08:45:32;131.20;;;84.03;;
66587;SDS011;53446;50.076;8.198;2023-08-01T08:47:38;128.35;;;82.70;;
66587;SDS011;53446;50.076;8.198;2023-08-01T08:49:42;121.82;;;80.53;;
66587;SDS011;53446;50.076;8.198;2023-08-01T08:51:43;123.35;;;79.43;;
66587;SDS011;53446;50.076;8.198;2023-08-01T08:53:44;122.90;;;79.53;;
66587;SDS011;53446;50.076;8.198;2023-08-01T08:55:45;110.90;;;77.28;;
66587;SDS011;53446;50.076;8.198;2023-08-01T08:57:45;106.67;;;75.87;;
66587;SDS011;53446;50.076;8.198;2023-08-01T08:59:50;109.10;;;75.70;;
66587;SDS011;53446;50.076;8.198;2023-08-01T09:01:51;104.00;;;74.07;;
66587;SDS011;53446;50.076;8.198;2023-08-01T09:03:51;105.90;;;74.87;;
66587;SDS011;53446;50.076;8.198;2023-08-01T09:06:15;101.10;;;72.53;;
66587;SDS011;53446;50.076;8.198;2023-08-01T09:08:18;106.32;;;74.38;;
66587;SDS011;53446;50.076;8.198;2023-08-01T09:10:20;103.40;;;72.65;;
66587;SDS011;53446;50.076;8.198;2023-08-01T09:12:20;100.23;;;71.63;;
66587;SDS011;53446;50.076;8.198;2023-08-01T09:14:21;100.85;;;72.25;;
66587;SDS011;53446;50.076;8.198;2023-08-01T09:16:22;100.35;;;71.85;;
66587;SDS011;53446;50.076;8.198;2023-08-01T09:18:22;106.40;;;73.43;;
66587;SDS011;53446;50.076;8.198;2023-08-01T09:20:22;104.90;;;73.40;;
66587;SDS011;53446;50.076;8.198;2023-08-01T09:22:23;105.50;;;73.73;;
66587;SDS011;53446;50.076;8.198;2023-08-01T09:24:23;103.00;;;71.97;;
66587;SDS011;53446;50.076;8.198;2023-08-01T09:26:23;98.80;;;71.03;;
66587;SDS011;53446;50.076;8.198;2023-08-01T09:28:23;106.30;;;73.23;;
66587;SDS011;53446;50.076;8.198;2023-08-01T09:30:24;99.80;;;71.50;;
66587;SDS011;53446;50.076;8.198;2023-08-01T09:32:24;96.75;;;69.28;;
66587;SDS011;53446;50.076;8.198;2023-08-01T09:34:26;95.43;;;69.43;;
66587;SDS011;53446;50.076;8.198;2023-08-01T09:36:26;90.45;;;67.28;;
66587;SDS011;53446;50.076;8.198;2023-08-01T09:38:27;91.40;;;66.13;;
66587;SDS011;53446;50.076;8.198;2023-08-01T09:40:37;85.20;;;64.40;;
66587;SDS011;53446;50.076;8.198;2023-08-01T09:42:41;82.38;;;64.28;;
66587;SDS011;53446;50.076;8.198;2023-08-01T09:44:44;84.97;;;64.88;;
66587;SDS011;53446;50.076;8.198;2023-08-01T09:47:01;82.82;;;64.70;;
66587;SDS011;53446;50.076;8.198;2023-08-01T09:49:09;87.18;;;65.63;;
66587;SDS011;53446;50.076;8.198;2023-08-01T09:51:11;88.32;;;66.72;;
66587;SDS011;53446;50.076;8.198;2023-08-01T09:53:12;86.35;;;65.18;;
66587;SDS011;53446;50.076;8.198;2023-08-01T09:55:12;87.03;;;65.97;;
66587;SDS011;53446;50.076;8.198;2023-08-01T09:57:13;87.63;;;66.20;;
66587;SDS011;53446;50.076;8.198;2023-08-01T09:59:14;87.27;;;66.60;;
66587;SDS011;53446;50.076;8.198;2023-08-01T10:01:24;87.70;;;65.18;;
66587;SDS011;53446;50.076;8.198;2023-08-01T10:03:25;88.07;;;64.25;;
66587;SDS011;53446;50.076;8.198;2023-08-01T10:05:31;82.47;;;60.83;;
66587;SDS011;53446;50.076;8.198;2023-08-01T10:07:32;86.90;;;64.70;;
66587;SDS011;53446;50.076;8.198;2023-08-01T10:09:33;70.43;;;58.45;;
66587;SDS011;53446;50.076;8.198;2023-08-01T10:11:35;68.53;;;56.83;;
66587;SDS011;53446;50.076;8.198;2023-08-01T10:13:35;65.83;;;54.80;;
66587;SDS011;53446;50.076;8.198;2023-08-01T10:15:36;60.70;;;53.17;;
66587;SDS011;53446;50.076;8.198;2023-08-01T10:17:36;59.50;;;51.47;;
66587;SDS011;53446;50.076;8.198;2023-08-01T10:19:37;59.53;;;49.87;;
66587;SDS011;53446;50.076;8.198;2023-08-01T10:21:38;59.45;;;49.38;;
66587;SDS011;53446;50.076;8.198;2023-08-01T10:23:39;51.83;;;45.97;;
66587;SDS011;53446;50.076;8.198;2023-08-01T10:25:39;58.13;;;48.27;;
66587;SDS011;53446;50.076;8.198;2023-08-01T10:27:40;54.05;;;47.83;;
66587;SDS011;53446;50.076;8.198;2023-08-01T10:29:41;56.78;;;49.30;;
66587;SDS011;53446;50.076;8.198;2023-08-01T10:31:54;58.42;;;47.25;;
66587;SDS011;53446;50.076;8.198;2023-08-01T10:34:03;52.13;;;45.50;;
66587;SDS011;53446;50.076;8.198;2023-08-01T10:36:14;52.33;;;46.33;;
66587;SDS011;53446;50.076;8.198;2023-08-01T10:38:15;54.25;;;47.53;;
66587;SDS011;53446;50.076;8.198;2023-08-01T10:40:15;56.80;;;49.80;;
66587;SDS011;53446;50.076;8.198;2023-08-01T10:42:16;58.30;;;50.53;;
66587;SDS011;53446;50.076;8.198;2023-08-01T10:44:16;59.15;;;50.70;;
66587;SDS011;53446;50.076;8.198;2023-08-01T10:46:17;68.18;;;56.28;;
66587;SDS011;53446;50.076;8.198;2023-08-01T10:48:17;67.40;;;56.57;;
66587;SDS011;53446;50.076;8.198;2023-08-01T10:50:18;70.77;;;58.83;;
66587;SDS011;53446;50.076;8.198;2023-08-01T10:52:22;72.60;;;59.10;;
66587;SDS011;53446;50.076;8.198;2023-08-01T10:54:24;74.30;;;59.42;;
66587;SDS011;53446;50.076;8.198;2023-08-01T10:56:25;69.45;;;57.15;;
66587;SDS011;53446;50.076;8.198;2023-08-01T10:58:26;68.35;;;56.92;;
66587;SDS011;53446;50.076;8.198;2023-08-01T11:00:27;65.25;;;54.90;;
66587;SDS011;53446;50.076;8.198;2023-08-01T11:02:28;61.93;;;52.40;;
66587;SDS011;53446;50.076;8.198;2023-08-01T11:04:29;56.78;;;49.13;;
66587;SDS011;53446;50.076;8.198;2023-08-01T11:06:29;58.03;;;47.20;;
66587;SDS011;53446;50.076;8.198;2023-08-01T11:08:36;51.43;;;44.10;;
66587;SDS011;53446;50.076;8.198;2023-08-01T11:10:37;46.67;;;40.80;;
66587;SDS011;53446;50.076;8.198;2023-08-01T11:12:38;45.87;;;40.37;;
66587;SDS011;53446;50.076;8.198;2023-08-01T11:14:40;44.55;;;38.70;;
66587;SDS011;53446;50.076;8.198;2023-08-01T11:16:40;46.63;;;38.63;;
66587;SDS011;53446;50.076;8.198;2023-08-01T11:18:43;47.95;;;39.83;;
66587;SDS011;53446;50.076;8.198;2023-08-01T11:20:44;47.28;;;41.63;;
66587;SDS011;53446;50.076;8.198;2023-08-01T11:22:52;45.55;;;40.45;;
66587;SDS011;53446;50.076;8.198;2023-08-01T11:24:54;52.73;;;45.87;;
66587;SDS011;53446;50.076;8.198;2023-08-01T11:26:54;55.35;;;46.80;;
66587;SDS011;53446;50.076;8.198;2023-08-01T11:28:54;61.83;;;52.83;;
66587;SDS011;53446;50.076;8.198;2023-08-01T11:30:55;68.43;;;57.03;;
66587;SDS011;53446;50.076;8.198;2023-08-01T11:32:55;78.07;;;59.90;;
66587;SDS011;53446;50.076;8.198;2023-08-01T11:34:55;74.63;;;59.67;;